createdAt,value
2019-03-09T00:00:56.296Z,8.32
2019-03-09T00:01:56.279Z,8.31
2019-03-09T00:02:56.296Z,8.38
2019-03-09T00:03:56.279Z,8.26
2019-03-09T00:04:56.256Z,8.21
2019-03-09T00:05:56.231Z,8.24
2019-03-09T00:06:56.229Z,8.23
2019-03-09T00:07:56.207Z,8.29
2019-03-09T00:08:56.235Z,8.31
2019-03-09T00:09:56.192Z,8.20
2019-03-09T00:10:56.207Z,8.23
2019-03-09T00:11:56.163Z,8.23
2019-03-09T00:12:56.177Z,8.28
2019-03-09T00:13:56.168Z,8.21
2019-03-09T00:14:56.137Z,8.34
2019-03-09T00:15:56.128Z,8.28
2019-03-09T00:16:56.113Z,8.21
2019-03-09T00:17:56.103Z,8.20
2019-03-09T00:18:56.125Z,8.06
2019-03-09T00:19:56.071Z,8.23
2019-03-09T00:20:56.062Z,8.20
2019-03-09T00:21:56.052Z,8.17
2019-03-09T00:22:56.058Z,8.20
2019-03-09T00:23:56.066Z,8.13
2019-03-09T00:24:56.027Z,8.29
2019-03-09T00:25:57.113Z,8.16
2019-03-09T00:26:55.993Z,8.16
2019-03-09T00:27:55.999Z,8.14
2019-03-09T00:28:55.985Z,8.13
2019-03-09T00:29:55.988Z,8.02
2019-03-09T00:30:55.975Z,8.14
2019-03-09T00:31:56.089Z,8.05
2019-03-09T00:32:55.943Z,8.02
2019-03-09T00:33:55.914Z,7.98
2019-03-09T00:34:55.947Z,7.98
2019-03-09T00:35:55.896Z,7.95
2019-03-09T00:36:55.881Z,8.02
2019-03-09T00:37:55.869Z,8.01
2019-03-09T00:38:55.860Z,7.95
2019-03-09T00:39:55.889Z,7.99
2019-03-09T00:40:55.837Z,7.98
2019-03-09T00:41:55.973Z,7.94
2019-03-09T00:42:55.815Z,7.91
2019-03-09T00:43:55.802Z,7.88
2019-03-09T00:44:55.792Z,7.77
2019-03-09T00:45:55.777Z,7.99
2019-03-09T00:46:55.809Z,7.87
2019-03-09T00:47:55.756Z,7.78
2019-03-09T00:48:55.746Z,7.76
2019-03-09T00:49:55.744Z,7.80
2019-03-09T00:50:55.743Z,7.92
2019-03-09T00:51:55.707Z,7.96
2019-03-09T00:52:55.696Z,7.94
2019-03-09T00:53:55.691Z,7.88
2019-03-09T00:54:55.677Z,7.96
2019-03-09T00:55:55.711Z,7.86
2019-03-09T00:56:55.653Z,7.91
2019-03-09T00:57:55.694Z,7.88
2019-03-09T00:58:55.643Z,7.86
2019-03-09T00:59:55.617Z,7.83
2019-03-09T01:00:55.610Z,7.83
2019-03-09T01:01:55.626Z,7.88
2019-03-09T01:02:55.585Z,7.92
2019-03-09T01:03:55.578Z,7.86
2019-03-09T01:04:55.570Z,7.86
2019-03-09T01:05:55.579Z,7.86
2019-03-09T01:06:55.543Z,7.83
2019-03-09T01:07:55.531Z,7.81
2019-03-09T01:08:55.518Z,7.94
2019-03-09T01:09:55.515Z,7.73
2019-03-09T01:10:55.527Z,7.78
2019-03-09T01:11:55.511Z,7.69
2019-03-09T01:12:55.475Z,7.78
2019-03-09T01:13:55.466Z,7.80
2019-03-09T01:14:55.460Z,7.83
2019-03-09T01:15:55.487Z,7.80
2019-03-09T01:16:55.462Z,7.83
2019-03-09T01:17:55.440Z,7.61
2019-03-09T01:18:55.405Z,7.64
2019-03-09T01:19:55.396Z,7.68
2019-03-09T01:20:55.383Z,7.71
2019-03-09T01:21:55.403Z,7.60
2019-03-09T01:22:55.373Z,7.73
2019-03-09T01:23:55.349Z,7.61
2019-03-09T01:24:55.361Z,7.68
2019-03-09T01:25:55.337Z,7.71
2019-03-09T01:26:55.327Z,7.60
2019-03-09T01:27:55.304Z,7.71
2019-03-09T01:28:55.303Z,7.71
2019-03-09T01:29:55.310Z,7.66
2019-03-09T01:30:55.274Z,7.66
2019-03-09T01:31:55.261Z,7.58
2019-03-09T01:32:55.252Z,7.66
2019-03-09T01:33:55.269Z,7.60
2019-03-09T01:34:55.232Z,7.64
2019-03-09T01:35:55.230Z,7.60
2019-03-09T01:36:55.211Z,7.52
2019-03-09T01:37:55.213Z,7.42
2019-03-09T01:38:55.185Z,7.66
2019-03-09T01:39:55.170Z,7.66
2019-03-09T01:40:55.158Z,7.57
2019-03-09T01:41:55.144Z,7.52
2019-03-09T01:42:55.269Z,7.58
2019-03-09T01:43:55.134Z,7.69
2019-03-09T01:44:55.124Z,7.55
2019-03-09T01:45:55.100Z,7.52
2019-03-09T01:46:55.089Z,7.36
2019-03-09T01:47:55.077Z,7.55
2019-03-09T01:48:55.099Z,7.54
2019-03-09T01:49:55.081Z,7.54
2019-03-09T01:50:55.046Z,7.47
2019-03-09T01:51:55.063Z,7.43
2019-03-09T01:52:55.060Z,7.36
2019-03-09T01:53:55.036Z,7.42
2019-03-09T01:54:55.004Z,7.43
2019-03-09T01:55:54.985Z,7.39
2019-03-09T01:56:54.980Z,7.31
2019-03-09T01:57:55.003Z,7.33
2019-03-09T01:58:54.954Z,7.46
2019-03-09T01:59:54.946Z,7.47
2019-03-09T02:00:54.935Z,7.46
2019-03-09T02:01:54.926Z,7.43
2019-03-09T02:02:54.934Z,7.47
2019-03-09T02:03:54.900Z,7.43
2019-03-09T02:04:54.911Z,7.44
2019-03-09T02:05:54.875Z,7.39
2019-03-09T02:06:54.863Z,7.42
2019-03-09T02:07:54.860Z,7.39
2019-03-09T02:08:54.871Z,7.28
2019-03-09T02:09:54.832Z,7.34
2019-03-09T02:10:54.820Z,7.28
2019-03-09T02:11:54.822Z,7.33
2019-03-09T02:12:54.828Z,7.55
2019-03-09T02:13:54.783Z,7.37
2019-03-09T02:14:54.795Z,7.33
2019-03-09T02:15:54.760Z,7.37
2019-03-09T02:16:54.749Z,7.34
2019-03-09T02:17:54.739Z,7.34
2019-03-09T02:18:54.754Z,7.40
2019-03-09T02:19:54.728Z,7.44
2019-03-09T02:20:54.702Z,7.39
2019-03-09T02:21:54.696Z,7.43
2019-03-09T02:22:54.696Z,7.36
2019-03-09T02:23:54.705Z,7.36
2019-03-09T02:24:54.658Z,7.39
2019-03-09T02:25:54.645Z,7.36
2019-03-09T02:26:54.635Z,7.28
2019-03-09T02:27:54.627Z,7.28
2019-03-09T02:28:54.651Z,7.29
2019-03-09T02:29:54.602Z,7.29
2019-03-09T02:30:54.601Z,7.34
2019-03-09T02:31:54.582Z,7.25
2019-03-09T02:32:54.579Z,7.34
2019-03-09T02:33:54.586Z,7.31
2019-03-09T02:34:54.544Z,7.26
2019-03-09T02:35:54.535Z,7.31
2019-03-09T02:36:54.524Z,7.33
2019-03-09T02:37:54.529Z,7.18
2019-03-09T02:38:54.515Z,7.33
2019-03-09T02:39:54.545Z,7.29
2019-03-09T02:40:54.477Z,7.28
2019-03-09T02:41:54.481Z,7.40
2019-03-09T02:42:54.461Z,7.19
2019-03-09T02:43:54.456Z,7.21
2019-03-09T02:44:54.441Z,7.24
2019-03-09T02:45:54.455Z,7.37
2019-03-09T02:46:54.410Z,7.36
2019-03-09T02:47:54.413Z,7.28
2019-03-09T02:48:54.401Z,7.29
2019-03-09T02:49:54.406Z,7.22
2019-03-09T02:50:54.404Z,7.36
2019-03-09T02:51:54.373Z,7.40
2019-03-09T02:52:54.361Z,7.44
2019-03-09T02:53:54.337Z,7.40
2019-03-09T02:54:54.323Z,7.34
2019-03-09T02:55:54.341Z,7.26
2019-03-09T02:56:54.315Z,7.33
2019-03-09T02:57:54.320Z,7.36
2019-03-09T02:58:54.274Z,7.39
2019-03-09T02:59:54.262Z,7.36
2019-03-09T03:00:54.295Z,7.31
2019-03-09T03:01:54.257Z,7.33
2019-03-09T03:02:54.233Z,7.42
2019-03-09T03:03:54.217Z,7.33
2019-03-09T03:04:54.204Z,7.28
2019-03-09T03:05:54.226Z,7.26
2019-03-09T03:06:54.185Z,7.43
2019-03-09T03:07:54.180Z,7.36
2019-03-09T03:08:54.159Z,7.37
2019-03-09T03:09:54.150Z,7.43
2019-03-09T03:10:54.163Z,7.42
2019-03-09T03:11:54.136Z,7.28
2019-03-09T03:12:54.127Z,7.44
2019-03-09T03:13:54.103Z,7.47
2019-03-09T03:14:54.091Z,7.44
2019-03-09T03:15:54.109Z,7.44
2019-03-09T03:16:54.073Z,7.58
2019-03-09T03:17:54.057Z,7.39
2019-03-09T03:18:54.049Z,7.60
2019-03-09T03:19:54.039Z,7.52
2019-03-09T03:20:54.060Z,7.60
2019-03-09T03:21:54.016Z,7.52
2019-03-09T03:22:54.005Z,7.57
2019-03-09T03:23:53.991Z,7.57
2019-03-09T03:24:53.983Z,7.54
2019-03-09T03:25:54.003Z,7.61
2019-03-09T03:26:53.962Z,7.50
2019-03-09T03:27:53.973Z,7.55
2019-03-09T03:28:53.958Z,7.46
2019-03-09T03:29:53.923Z,7.49
2019-03-09T03:30:53.946Z,7.64
2019-03-09T03:31:53.901Z,7.69
2019-03-09T03:32:53.984Z,7.60
2019-03-09T03:33:53.896Z,7.62
2019-03-09T03:34:53.953Z,7.64
2019-03-09T03:35:53.897Z,7.68
2019-03-09T03:36:53.877Z,7.71
2019-03-09T03:37:53.856Z,7.64
2019-03-09T03:38:53.842Z,7.68
2019-03-09T03:39:53.807Z,7.64
2019-03-09T03:40:53.810Z,7.73
2019-03-09T03:41:53.785Z,7.73
2019-03-09T03:42:54.080Z,7.76
2019-03-09T03:43:53.762Z,7.68
2019-03-09T03:44:53.753Z,7.74
2019-03-09T03:45:53.735Z,7.78
2019-03-09T03:46:53.745Z,7.87
2019-03-09T03:47:53.744Z,7.81
2019-03-09T03:48:53.703Z,7.69
2019-03-09T03:49:53.689Z,7.73
2019-03-09T03:50:53.686Z,7.78
2019-03-09T03:51:53.690Z,7.81
2019-03-09T03:52:53.655Z,7.84
2019-03-09T03:53:53.663Z,7.87
2019-03-09T03:54:53.661Z,7.83
2019-03-09T03:55:53.621Z,7.71
2019-03-09T03:56:53.711Z,7.83
2019-03-09T03:57:53.609Z,7.78
2019-03-09T03:58:53.586Z,7.77
2019-03-09T03:59:53.576Z,7.87
2019-03-09T04:00:53.572Z,7.91
2019-03-09T04:01:53.577Z,7.94
2019-03-09T04:02:53.545Z,7.84
2019-03-09T04:03:53.538Z,7.92
2019-03-09T04:04:53.521Z,7.88
2019-03-09T04:05:53.514Z,7.92
2019-03-09T04:06:53.532Z,7.95
2019-03-09T04:07:53.486Z,7.94
2019-03-09T04:08:53.473Z,8.06
2019-03-09T04:09:53.466Z,7.91
2019-03-09T04:10:53.461Z,7.91
2019-03-09T04:11:53.465Z,7.91
2019-03-09T04:12:53.446Z,7.91
2019-03-09T04:13:53.420Z,8.04
2019-03-09T04:14:53.411Z,7.99
2019-03-09T04:15:53.394Z,8.06
2019-03-09T04:16:53.420Z,8.01
2019-03-09T04:17:53.397Z,8.12
2019-03-09T04:18:53.360Z,8.13
2019-03-09T04:19:53.350Z,8.20
2019-03-09T04:20:53.336Z,8.23
2019-03-09T04:21:53.330Z,8.13
2019-03-09T04:22:53.341Z,8.32
2019-03-09T04:23:53.309Z,8.19
2019-03-09T04:24:53.309Z,8.09
2019-03-09T04:25:53.285Z,8.21
2019-03-09T04:26:53.272Z,8.20
2019-03-09T04:27:53.294Z,8.17
2019-03-09T04:28:53.250Z,8.09
2019-03-09T04:29:53.240Z,8.23
2019-03-09T04:30:53.228Z,8.21
2019-03-09T04:31:53.219Z,8.21
2019-03-09T04:32:53.235Z,8.20
2019-03-09T04:33:53.197Z,8.37
2019-03-09T04:34:53.186Z,8.19
2019-03-09T04:35:53.179Z,8.23
2019-03-09T04:36:53.160Z,8.34
2019-03-09T04:37:53.172Z,8.21
2019-03-09T04:38:53.137Z,8.32
2019-03-09T04:39:53.124Z,8.26
2019-03-09T04:40:53.115Z,8.21
2019-03-09T04:41:53.108Z,8.29
2019-03-09T04:42:53.124Z,8.26
2019-03-09T04:43:53.082Z,8.24
2019-03-09T04:44:53.070Z,8.31
2019-03-09T04:45:53.057Z,8.31
2019-03-09T04:46:53.050Z,8.24
2019-03-09T04:47:53.074Z,8.34
2019-03-09T04:48:53.031Z,8.31
2019-03-09T04:49:53.013Z,8.16
2019-03-09T04:50:53.009Z,8.24
2019-03-09T04:51:52.997Z,8.31
2019-03-09T04:52:52.981Z,8.28
2019-03-09T04:53:52.994Z,8.34
2019-03-09T04:54:52.956Z,8.20
2019-03-09T04:55:52.977Z,8.29
2019-03-09T04:56:52.932Z,8.41
2019-03-09T04:57:52.931Z,8.46
2019-03-09T04:58:52.931Z,8.34
2019-03-09T04:59:52.902Z,8.41
2019-03-09T05:00:52.889Z,8.55
2019-03-09T05:01:52.883Z,8.39
2019-03-09T05:02:52.863Z,8.46
2019-03-09T05:03:52.873Z,8.34
2019-03-09T05:04:52.841Z,8.49
2019-03-09T05:05:52.863Z,8.44
2019-03-09T05:06:52.826Z,8.41
2019-03-09T05:07:52.818Z,8.59
2019-03-09T05:08:52.827Z,8.55
2019-03-09T05:09:52.790Z,8.57
2019-03-09T05:10:52.795Z,8.50
2019-03-09T05:11:52.761Z,8.50
2019-03-09T05:12:52.762Z,8.50
2019-03-09T05:13:52.771Z,8.53
2019-03-09T05:14:52.732Z,8.41
2019-03-09T05:15:52.748Z,8.49
2019-03-09T05:16:52.711Z,8.49
2019-03-09T05:17:52.701Z,8.55
2019-03-09T05:18:52.718Z,8.49
2019-03-09T05:19:52.677Z,8.55
2019-03-09T05:20:52.661Z,8.47
2019-03-09T05:21:52.649Z,8.59
2019-03-09T05:22:52.649Z,8.52
2019-03-09T05:23:52.656Z,8.47
2019-03-09T05:24:52.619Z,8.50
2019-03-09T05:25:52.629Z,8.50
2019-03-09T05:26:52.600Z,8.44
2019-03-09T05:27:52.585Z,8.46
2019-03-09T05:28:52.573Z,8.53
2019-03-09T05:29:52.594Z,8.49
2019-03-09T05:30:52.549Z,8.47
2019-03-09T05:31:52.539Z,8.55
2019-03-09T05:32:52.533Z,8.42
2019-03-09T05:33:52.518Z,8.44
2019-03-09T05:34:52.536Z,8.57
2019-03-09T05:35:52.519Z,8.46
2019-03-09T05:36:52.489Z,8.41
2019-03-09T05:37:52.482Z,8.47
2019-03-09T05:38:52.458Z,8.41
2019-03-09T05:39:52.453Z,8.37
2019-03-09T05:40:52.463Z,8.37
2019-03-09T05:41:52.428Z,8.47
2019-03-09T05:42:52.418Z,8.26
2019-03-09T05:43:52.412Z,8.39
2019-03-09T05:44:52.420Z,8.31
2019-03-09T05:45:52.409Z,8.46
2019-03-09T05:46:52.388Z,8.39
2019-03-09T05:47:52.359Z,8.56
2019-03-09T05:48:52.350Z,8.41
2019-03-09T05:49:52.337Z,8.38
2019-03-09T05:50:52.358Z,8.42
2019-03-09T05:51:52.316Z,8.37
2019-03-09T05:52:52.304Z,8.31
2019-03-09T05:53:52.292Z,8.24
2019-03-09T05:54:52.286Z,8.32
2019-03-09T05:55:52.300Z,8.24
2019-03-09T05:56:52.263Z,8.21
2019-03-09T05:57:52.249Z,8.28
2019-03-09T05:58:52.241Z,8.29
2019-03-09T05:59:52.228Z,8.32
2019-03-09T06:00:52.240Z,8.26
2019-03-09T06:01:52.204Z,8.35
2019-03-09T06:02:52.225Z,8.32
2019-03-09T06:03:52.178Z,8.28
2019-03-09T06:04:52.175Z,8.21
2019-03-09T06:05:52.193Z,8.35
2019-03-09T06:06:52.177Z,8.28
2019-03-09T06:07:52.140Z,8.19
2019-03-09T06:08:52.128Z,8.20
2019-03-09T06:09:52.114Z,8.29
2019-03-09T06:10:52.100Z,8.29
2019-03-09T06:11:52.116Z,8.28
2019-03-09T06:12:52.085Z,8.28
2019-03-09T06:13:52.126Z,8.23
2019-03-09T06:14:52.055Z,8.28
2019-03-09T06:15:52.052Z,8.38
2019-03-09T06:16:52.062Z,8.34
2019-03-09T06:17:52.025Z,8.37
2019-03-09T06:18:52.015Z,8.28
2019-03-09T06:19:51.998Z,8.34
2019-03-09T06:20:51.987Z,8.37
2019-03-09T06:21:52.003Z,8.37
2019-03-09T06:22:51.963Z,8.29
2019-03-09T06:23:51.952Z,8.46
2019-03-09T06:24:51.945Z,8.46
2019-03-09T06:25:51.968Z,8.42
2019-03-09T06:26:51.917Z,8.50
2019-03-09T06:27:51.932Z,8.42
2019-03-09T06:28:51.973Z,8.56
2019-03-09T06:29:51.883Z,8.77
2019-03-09T06:30:51.884Z,8.72
2019-03-09T06:31:51.866Z,8.90
2019-03-09T06:32:51.872Z,8.92
2019-03-09T06:33:51.854Z,8.93
2019-03-09T06:34:51.826Z,8.81
2019-03-09T06:35:51.835Z,8.75
2019-03-09T06:36:51.810Z,8.92
2019-03-09T06:37:51.816Z,8.83
2019-03-09T06:38:51.781Z,8.71
2019-03-09T06:39:51.778Z,8.68
2019-03-09T06:40:51.765Z,8.67
2019-03-09T06:41:51.755Z,8.62
2019-03-09T06:42:51.770Z,8.65
2019-03-09T06:43:51.728Z,8.46
2019-03-09T06:44:51.725Z,8.52
2019-03-09T06:45:51.707Z,8.42
2019-03-09T06:46:51.695Z,8.49
2019-03-09T06:47:51.722Z,8.52
2019-03-09T06:48:51.682Z,8.56
2019-03-09T06:49:51.667Z,8.50
2019-03-09T06:50:51.648Z,8.55
2019-03-09T06:51:51.642Z,8.56
2019-03-09T06:52:51.651Z,8.50
2019-03-09T06:53:51.617Z,8.35
2019-03-09T06:54:51.634Z,8.57
2019-03-09T06:55:51.598Z,8.52
2019-03-09T06:56:51.585Z,8.47
2019-03-09T06:57:51.573Z,8.53
2019-03-09T06:58:51.562Z,8.53
2019-03-09T06:59:51.709Z,8.60
2019-03-09T07:00:51.540Z,8.57
2019-03-09T07:01:51.530Z,8.50
2019-03-09T07:02:51.543Z,8.53
2019-03-09T07:03:51.552Z,8.57
2019-03-09T07:04:51.490Z,8.56
2019-03-09T07:05:51.495Z,8.49
2019-03-09T07:06:51.478Z,8.53
2019-03-09T07:07:51.480Z,8.52
2019-03-09T07:08:51.484Z,8.53
2019-03-09T07:09:51.453Z,8.50
2019-03-09T07:10:51.425Z,8.60
2019-03-09T07:11:51.418Z,8.62
2019-03-09T07:12:51.405Z,8.52
2019-03-09T07:13:53.146Z,8.57
2019-03-09T07:14:51.380Z,8.50
2019-03-09T07:15:51.379Z,8.57
2019-03-09T07:16:51.362Z,8.65
2019-03-09T07:17:51.363Z,8.52
2019-03-09T07:18:51.341Z,8.56
2019-03-09T07:19:51.360Z,8.59
2019-03-09T07:20:51.323Z,8.65
2019-03-09T07:21:51.318Z,8.65
2019-03-09T07:22:51.298Z,8.65
2019-03-09T07:23:51.280Z,8.75
2019-03-09T07:24:51.294Z,8.71
2019-03-09T07:25:51.265Z,8.71
2019-03-09T07:26:51.245Z,8.75
2019-03-09T07:27:51.234Z,8.71
2019-03-09T07:28:51.231Z,8.74
2019-03-09T07:29:51.241Z,8.70
2019-03-09T07:30:51.223Z,8.71
2019-03-09T07:31:51.189Z,8.68
2019-03-09T07:32:51.184Z,8.80
2019-03-09T07:33:51.171Z,8.83
2019-03-09T07:34:51.160Z,8.75
2019-03-09T07:35:51.173Z,8.95
2019-03-09T07:36:51.142Z,8.81
2019-03-09T07:37:51.131Z,8.74
2019-03-09T07:38:51.110Z,8.86
2019-03-09T07:39:51.104Z,8.75
2019-03-09T07:40:51.114Z,8.75
2019-03-09T07:41:51.079Z,8.77
2019-03-09T07:42:51.066Z,8.75
2019-03-09T07:43:51.054Z,8.78
2019-03-09T07:44:51.043Z,8.85
2019-03-09T07:45:51.067Z,8.95
2019-03-09T07:46:51.020Z,8.92
2019-03-09T07:47:51.015Z,8.90
2019-03-09T07:48:50.999Z,8.93
2019-03-09T07:49:50.990Z,8.89
2019-03-09T07:50:50.998Z,9.01
2019-03-09T07:51:50.972Z,9.09
2019-03-09T07:52:50.955Z,8.93
2019-03-09T07:53:50.945Z,9.11
2019-03-09T07:54:52.058Z,9.09
2019-03-09T07:55:50.953Z,9.11
2019-03-09T07:56:50.914Z,9.12
2019-03-09T07:57:50.901Z,9.09
2019-03-09T07:58:50.888Z,9.22
2019-03-09T07:59:50.891Z,9.19
2019-03-09T08:00:50.911Z,9.23
2019-03-09T08:01:50.909Z,9.23
2019-03-09T08:02:50.844Z,9.19
2019-03-09T08:03:50.837Z,9.27
2019-03-09T08:04:50.825Z,9.32
2019-03-09T08:05:50.815Z,9.26
2019-03-09T08:06:50.827Z,9.22
2019-03-09T08:07:50.791Z,9.27
2019-03-09T08:08:50.776Z,9.24
2019-03-09T08:09:50.775Z,9.24
2019-03-09T08:10:50.756Z,9.32
2019-03-09T08:11:50.773Z,9.23
2019-03-09T08:12:50.738Z,9.29
2019-03-09T08:13:50.730Z,9.34
2019-03-09T08:14:50.714Z,9.29
2019-03-09T08:15:50.709Z,9.19
2019-03-09T08:16:50.764Z,9.27
2019-03-09T08:17:50.678Z,9.27
2019-03-09T08:18:50.687Z,9.36
2019-03-09T08:19:50.685Z,9.45
2019-03-09T08:20:50.674Z,9.47
2019-03-09T08:21:50.670Z,9.52
2019-03-09T08:22:50.622Z,9.45
2019-03-09T08:23:50.617Z,9.62
2019-03-09T08:24:50.605Z,9.59
2019-03-09T08:25:50.589Z,9.55
2019-03-09T08:26:50.614Z,9.63
2019-03-09T08:27:50.569Z,9.72
2019-03-09T08:28:50.570Z,9.54
2019-03-09T08:29:50.557Z,9.78
2019-03-09T08:30:50.541Z,9.62
2019-03-09T08:31:50.545Z,9.60
2019-03-09T08:32:50.552Z,9.62
2019-03-09T08:33:50.502Z,9.63
2019-03-09T08:34:50.485Z,9.65
2019-03-09T08:35:50.521Z,9.66
2019-03-09T08:36:50.509Z,9.70
2019-03-09T08:37:50.461Z,9.72
2019-03-09T08:38:50.465Z,9.67
2019-03-09T08:39:50.460Z,9.69
2019-03-09T08:40:50.428Z,9.70
2019-03-09T08:41:50.413Z,9.67
2019-03-09T08:42:50.439Z,9.63
2019-03-09T08:43:50.405Z,9.72
2019-03-09T08:44:50.378Z,9.59
2019-03-09T08:45:50.365Z,9.73
2019-03-09T08:46:50.357Z,9.70
2019-03-09T08:47:52.538Z,9.72
2019-03-09T08:48:50.344Z,9.65
2019-03-09T08:49:50.327Z,9.67
2019-03-09T08:50:50.333Z,9.70
2019-03-09T08:51:50.303Z,9.73
2019-03-09T08:52:50.332Z,9.87
2019-03-09T08:53:50.276Z,9.75
2019-03-09T08:54:50.273Z,9.66
2019-03-09T08:55:50.271Z,9.78
2019-03-09T08:56:50.263Z,9.75
2019-03-09T08:57:50.293Z,9.78
2019-03-09T08:58:50.281Z,9.73
2019-03-09T08:59:50.216Z,9.93
2019-03-09T09:00:50.201Z,9.83
2019-03-09T09:01:50.187Z,9.80
2019-03-09T09:02:50.174Z,9.83
2019-03-09T09:03:50.188Z,9.93
2019-03-09T09:04:50.156Z,9.78
2019-03-09T09:05:50.145Z,9.98
2019-03-09T09:06:50.142Z,9.99
2019-03-09T09:07:50.155Z,9.87
2019-03-09T09:08:50.173Z,9.84
2019-03-09T09:09:50.109Z,9.96
2019-03-09T09:10:50.091Z,10.02
2019-03-09T09:11:50.080Z,10.02
2019-03-09T09:12:50.084Z,9.98
2019-03-09T09:13:50.094Z,9.91
2019-03-09T09:14:50.045Z,9.96
2019-03-09T09:15:50.043Z,10.08
2019-03-09T09:16:50.026Z,10.01
2019-03-09T09:17:50.023Z,9.94
2019-03-09T09:18:50.021Z,10.18
2019-03-09T09:19:49.986Z,10.09
2019-03-09T09:20:49.974Z,10.06
2019-03-09T09:21:49.973Z,10.06
2019-03-09T09:22:49.951Z,10.20
2019-03-09T09:23:49.973Z,10.18
2019-03-09T09:24:49.937Z,10.18
2019-03-09T09:25:49.928Z,10.06
2019-03-09T09:26:49.918Z,10.24
2019-03-09T09:27:51.751Z,10.16
2019-03-09T09:28:49.952Z,10.21
2019-03-09T09:29:49.877Z,10.23
2019-03-09T09:30:49.869Z,10.21
2019-03-09T09:31:49.854Z,10.23
2019-03-09T09:32:49.839Z,10.20
2019-03-09T09:33:49.831Z,10.21
2019-03-09T09:34:49.848Z,10.30
2019-03-09T09:35:49.805Z,10.26
2019-03-09T09:36:49.807Z,10.27
2019-03-09T09:37:49.851Z,10.24
2019-03-09T09:38:49.783Z,10.24
2019-03-09T09:39:49.798Z,10.21
2019-03-09T09:40:49.752Z,10.31
2019-03-09T09:41:49.742Z,10.36
2019-03-09T09:42:49.730Z,10.35
2019-03-09T09:43:49.715Z,10.36
2019-03-09T09:44:49.726Z,10.43
2019-03-09T09:45:49.693Z,10.39
2019-03-09T09:46:49.687Z,10.42
2019-03-09T09:47:49.688Z,10.46
2019-03-09T09:48:49.679Z,10.48
2019-03-09T09:49:49.671Z,10.52
2019-03-09T09:50:49.634Z,10.43
2019-03-09T09:51:49.624Z,10.38
2019-03-09T09:52:49.622Z,10.57
2019-03-09T09:53:49.604Z,10.61
2019-03-09T09:54:49.615Z,10.55
2019-03-09T09:55:49.616Z,10.52
2019-03-09T09:56:49.579Z,10.52
2019-03-09T09:57:49.567Z,10.52
2019-03-09T09:58:49.560Z,10.45
2019-03-09T09:59:49.571Z,10.57
2019-03-09T10:00:49.697Z,10.45
2019-03-09T10:01:49.522Z,10.54
2019-03-09T10:02:49.510Z,10.46
2019-03-09T10:03:49.492Z,10.52
2019-03-09T10:04:49.490Z,10.55
2019-03-09T10:05:49.486Z,10.58
2019-03-09T10:06:49.453Z,10.52
2019-03-09T10:07:49.444Z,10.52
2019-03-09T10:08:49.445Z,10.46
2019-03-09T10:09:49.431Z,10.52
2019-03-09T10:10:49.568Z,10.64
2019-03-09T10:11:49.402Z,10.52
2019-03-09T10:12:49.385Z,10.45
2019-03-09T10:13:49.379Z,10.52
2019-03-09T10:14:49.370Z,10.42
2019-03-09T10:15:49.446Z,10.55
2019-03-09T10:16:49.351Z,10.57
2019-03-09T10:17:49.342Z,10.52
2019-03-09T10:18:49.318Z,10.42
2019-03-09T10:19:49.311Z,10.48
2019-03-09T10:20:49.324Z,10.49
2019-03-09T10:21:49.299Z,10.55
2019-03-09T10:22:49.278Z,10.60
2019-03-09T10:23:49.261Z,10.48
2019-03-09T10:24:49.254Z,10.55
2019-03-09T10:25:49.274Z,10.62
2019-03-09T10:26:49.241Z,10.58
2019-03-09T10:27:49.273Z,10.58
2019-03-09T10:28:49.208Z,10.62
2019-03-09T10:29:49.198Z,10.73
2019-03-09T10:30:49.185Z,10.65
2019-03-09T10:31:49.220Z,10.68
2019-03-09T10:32:49.161Z,10.76
2019-03-09T10:33:49.157Z,10.80
2019-03-09T10:34:49.145Z,10.73
2019-03-09T10:35:49.154Z,10.90
2019-03-09T10:36:49.142Z,10.82
2019-03-09T10:37:49.151Z,11.04
2019-03-09T10:38:49.105Z,11.03
2019-03-09T10:39:49.087Z,10.93
2019-03-09T10:40:49.085Z,11.03
2019-03-09T10:41:49.110Z,11.12
2019-03-09T10:42:49.047Z,11.11
2019-03-09T10:43:49.039Z,11.22
2019-03-09T10:44:49.816Z,11.15
2019-03-09T10:45:49.027Z,11.09
2019-03-09T10:46:49.029Z,11.19
2019-03-09T10:47:48.998Z,11.20
2019-03-09T10:48:48.979Z,11.33
2019-03-09T10:49:48.973Z,11.20
2019-03-09T10:50:48.963Z,11.45
2019-03-09T10:51:48.973Z,11.43
2019-03-09T10:52:48.954Z,11.20
2019-03-09T10:53:48.932Z,11.30
2019-03-09T10:54:48.913Z,11.16
2019-03-09T10:55:48.909Z,11.18
2019-03-09T10:56:48.991Z,11.15
2019-03-09T10:57:48.930Z,11.15
2019-03-09T10:58:48.884Z,11.04
2019-03-09T10:59:48.858Z,11.20
2019-03-09T11:00:48.849Z,11.22
2019-03-09T11:01:48.865Z,11.08
2019-03-09T11:02:48.866Z,11.11
2019-03-09T11:03:48.824Z,10.95
2019-03-09T11:04:48.804Z,11.11
2019-03-09T11:05:48.791Z,11.04
2019-03-09T11:06:48.853Z,11.03
2019-03-09T11:07:48.804Z,10.94
2019-03-09T11:08:48.762Z,11.05
2019-03-09T11:09:48.747Z,11.09
2019-03-09T11:10:48.747Z,11.25
2019-03-09T11:11:48.722Z,11.13
2019-03-09T11:12:48.748Z,11.15
2019-03-09T11:13:52.150Z,11.13
2019-03-09T11:14:48.686Z,11.19
2019-03-09T11:15:48.677Z,11.20
2019-03-09T11:16:48.667Z,11.22
2019-03-09T11:17:48.805Z,10.98
2019-03-09T11:18:48.642Z,11.12
2019-03-09T11:19:48.655Z,11.05
2019-03-09T11:20:48.622Z,11.13
2019-03-09T11:21:48.616Z,11.12
2019-03-09T11:22:48.639Z,11.16
2019-03-09T11:23:48.699Z,11.22
2019-03-09T11:24:48.576Z,11.31
2019-03-09T11:25:48.560Z,11.30
2019-03-09T11:26:48.549Z,11.38
2019-03-09T11:27:48.617Z,11.38
2019-03-09T11:28:48.530Z,11.41
2019-03-09T11:29:48.517Z,11.41
2019-03-09T11:30:48.519Z,11.43
2019-03-09T11:31:48.512Z,11.51
2019-03-09T11:32:48.494Z,11.45
2019-03-09T11:33:48.516Z,11.51
2019-03-09T11:34:48.470Z,11.69
2019-03-09T11:35:48.459Z,11.64
2019-03-09T11:36:48.438Z,11.71
2019-03-09T11:37:48.442Z,11.74
2019-03-09T11:38:48.452Z,11.74
2019-03-09T11:39:48.411Z,11.95
2019-03-09T11:40:57.066Z,11.87
2019-03-09T11:41:49.381Z,12.03
2019-03-09T11:42:48.383Z,11.99
2019-03-09T11:43:48.385Z,11.99
2019-03-09T11:44:48.355Z,12.10
2019-03-09T11:45:48.342Z,12.04
2019-03-09T11:46:48.338Z,12.11
2019-03-09T11:47:48.319Z,12.18
2019-03-09T11:48:48.346Z,12.07
2019-03-09T11:49:48.312Z,12.03
2019-03-09T11:50:48.282Z,12.03
2019-03-09T11:51:48.275Z,11.96
2019-03-09T11:52:48.265Z,11.87
2019-03-09T11:53:48.289Z,11.84
2019-03-09T11:54:48.267Z,11.64
2019-03-09T11:55:48.230Z,11.67
2019-03-09T11:56:48.216Z,11.74
2019-03-09T11:57:48.251Z,11.73
2019-03-09T11:58:48.195Z,11.58
2019-03-09T11:59:48.234Z,11.71
2019-03-09T12:00:48.181Z,11.59
2019-03-09T12:01:48.160Z,11.61
2019-03-09T12:02:48.154Z,11.61
2019-03-09T12:03:48.140Z,11.45
2019-03-09T12:04:48.170Z,11.58
2019-03-09T12:05:48.118Z,11.41
2019-03-09T12:06:48.108Z,11.55
2019-03-09T12:07:48.114Z,11.37
2019-03-09T12:08:48.083Z,11.49
2019-03-09T12:09:48.070Z,11.40
2019-03-09T12:10:48.101Z,11.51
2019-03-09T12:11:48.058Z,11.33
2019-03-09T12:12:48.045Z,11.46
2019-03-09T12:13:48.035Z,11.54
2019-03-09T12:14:48.056Z,11.43
2019-03-09T12:15:48.041Z,11.64
2019-03-09T12:16:47.995Z,11.61
2019-03-09T12:17:50.427Z,11.66
2019-03-09T12:18:47.968Z,11.64
2019-03-09T12:19:47.971Z,11.73
2019-03-09T12:20:48.035Z,11.89
2019-03-09T12:21:47.944Z,11.96
2019-03-09T12:22:47.924Z,12.08
2019-03-09T12:23:47.914Z,12.03
2019-03-09T12:24:47.903Z,12.04
2019-03-09T12:25:47.919Z,11.99
2019-03-09T12:26:47.881Z,11.88
2019-03-09T12:27:47.867Z,11.79
2019-03-09T12:28:47.862Z,11.80
2019-03-09T12:29:47.849Z,11.88
2019-03-09T12:30:47.861Z,11.89
2019-03-09T12:31:47.822Z,11.82
2019-03-09T12:32:47.816Z,11.84
2019-03-09T12:33:47.816Z,11.73
2019-03-09T12:34:47.798Z,11.80
2019-03-09T12:35:47.813Z,11.82
2019-03-09T12:36:47.770Z,11.99
2019-03-09T12:37:47.758Z,11.87
2019-03-09T12:38:47.759Z,11.88
2019-03-09T12:39:47.746Z,11.89
2019-03-09T12:40:47.752Z,12.00
2019-03-09T12:41:47.743Z,12.05
2019-03-09T12:42:47.712Z,12.04
2019-03-09T12:43:47.700Z,12.00
2019-03-09T12:44:47.706Z,12.05
2019-03-09T12:45:47.674Z,12.05
2019-03-09T12:46:47.688Z,12.08
2019-03-09T12:47:47.650Z,12.05
2019-03-09T12:48:47.637Z,11.93
2019-03-09T12:49:47.644Z,11.97
2019-03-09T12:50:47.620Z,12.08
2019-03-09T12:51:47.633Z,11.93
2019-03-09T12:52:47.593Z,11.89
2019-03-09T12:53:47.587Z,11.99
2019-03-09T12:54:47.570Z,11.96
2019-03-09T12:55:47.568Z,11.97
2019-03-09T12:56:47.582Z,11.95
2019-03-09T12:57:47.539Z,12.10
2019-03-09T12:58:47.534Z,12.05
2019-03-09T12:59:47.570Z,12.11
2019-03-09T13:00:47.525Z,12.08
2019-03-09T13:01:47.521Z,11.95
2019-03-09T13:02:47.486Z,11.91
2019-03-09T13:03:47.474Z,11.89
2019-03-09T13:04:47.481Z,11.84
2019-03-09T13:05:47.460Z,11.82
2019-03-09T13:06:47.460Z,11.96
2019-03-09T13:07:47.435Z,11.79
2019-03-09T13:08:47.413Z,11.85
2019-03-09T13:09:47.417Z,11.88
2019-03-09T13:10:47.394Z,11.95